createdAt,value
2022-10-19T00:02:20.764Z,10.93
2022-10-19T00:04:47.492Z,14.07
2022-10-19T00:07:14.114Z,14.02
2022-10-19T00:09:43.453Z,13.98
2022-10-19T00:12:10.232Z,14.50
2022-10-19T00:14:36.854Z,19.60
2022-10-19T00:17:03.517Z,18.67
2022-10-19T00:19:30.152Z,10.45
2022-10-19T00:21:56.894Z,14.93
2022-10-19T00:24:23.528Z,12.63
2022-10-19T00:26:50.164Z,8.40
2022-10-19T00:29:17.184Z,9.30
2022-10-19T00:31:43.875Z,11.60
2022-10-19T00:34:10.763Z,7.57
2022-10-19T00:36:40.277Z,16.25
2022-10-19T00:39:11.443Z,9.23
2022-10-19T00:41:39.389Z,11.27
2022-10-19T00:44:13.605Z,10.52
2022-10-19T00:46:42.708Z,13.63
2022-10-19T00:49:31.174Z,13.75
2022-10-19T00:52:04.235Z,8.23
2022-10-19T00:54:33.441Z,12.77
2022-10-19T00:57:00.425Z,12.88
2022-10-19T00:59:28.397Z,13.57
2022-10-19T01:01:55.354Z,10.25
2022-10-19T01:04:23.566Z,10.25
2022-10-19T01:09:18.280Z,9.52
2022-10-19T01:11:53.992Z,11.52
2022-10-19T01:14:54.167Z,8.85
2022-10-19T01:17:39.030Z,8.75
2022-10-19T01:20:35.385Z,12.88
2022-10-19T01:23:04.853Z,8.82
2022-10-19T01:26:05.516Z,10.18
2022-10-19T01:28:54.073Z,8.07
2022-10-19T01:31:39.377Z,8.70
2022-10-19T01:34:12.304Z,11.70
2022-10-19T01:36:44.073Z,9.35
2022-10-19T01:39:36.332Z,11.32
2022-10-19T01:42:22.263Z,9.15
2022-10-19T01:45:06.423Z,8.85
2022-10-19T01:47:41.233Z,10.10
2022-10-19T01:50:24.651Z,10.27
2022-10-19T01:52:53.320Z,9.55
2022-10-19T01:55:21.252Z,10.43
2022-10-19T01:57:58.282Z,11.05
2022-10-19T02:00:27.419Z,11.93
2022-10-19T02:02:56.020Z,12.60
2022-10-19T02:05:28.377Z,11.68
2022-10-19T02:08:00.080Z,7.45
2022-10-19T02:10:28.366Z,7.47
2022-10-19T02:12:56.447Z,7.72
2022-10-19T02:15:26.011Z,7.55
2022-10-19T02:17:57.194Z,8.13
2022-10-19T02:20:24.059Z,11.20
2022-10-19T02:22:50.885Z,9.45
2022-10-19T02:25:17.728Z,8.48
2022-10-19T02:27:44.977Z,10.52
2022-10-19T02:30:15.480Z,7.55
2022-10-19T02:32:43.142Z,10.90
2022-10-19T02:35:11.871Z,11.00
2022-10-19T02:37:39.159Z,9.20
2022-10-19T02:40:06.533Z,6.75
2022-10-19T02:42:39.625Z,8.32
2022-10-19T02:45:14.059Z,9.80
2022-10-19T02:47:53.955Z,11.02
2022-10-19T02:50:21.976Z,5.88
2022-10-19T02:52:48.631Z,7.55
2022-10-19T02:55:15.397Z,8.75
2022-10-19T02:57:42.117Z,5.90
2022-10-19T03:00:09.392Z,12.77
2022-10-19T03:02:36.151Z,7.22
2022-10-19T03:05:03.445Z,8.80
2022-10-19T03:07:30.197Z,8.43
2022-10-19T03:09:56.813Z,7.82
2022-10-19T03:12:23.423Z,10.15
2022-10-19T03:14:50.009Z,6.72
2022-10-19T03:17:16.625Z,6.53
2022-10-19T03:19:43.328Z,9.13
2022-10-19T03:22:10.038Z,8.85
2022-10-19T03:24:36.655Z,7.03
2022-10-19T03:27:03.297Z,8.27
2022-10-19T03:29:29.957Z,8.07
2022-10-19T03:31:56.577Z,5.72
2022-10-19T03:34:23.229Z,6.70
2022-10-19T03:36:49.945Z,8.68
2022-10-19T03:39:17.079Z,9.25
2022-10-19T03:41:44.113Z,10.93
2022-10-19T03:44:11.388Z,7.03
2022-10-19T03:46:38.598Z,8.23
2022-10-19T03:49:06.245Z,8.05
2022-10-19T03:51:33.565Z,7.25
2022-10-19T03:54:06.413Z,7.18
2022-10-19T03:56:34.716Z,8.25
2022-10-19T03:59:03.908Z,7.65
2022-10-19T04:01:32.226Z,6.22
2022-10-19T04:04:01.417Z,7.97
2022-10-19T04:06:31.023Z,7.97
2022-10-19T04:08:58.241Z,7.32
2022-10-19T04:11:27.194Z,7.57
2022-10-19T04:13:55.368Z,5.85
2022-10-19T04:16:23.659Z,6.65
2022-10-19T04:18:50.416Z,5.50
2022-10-19T04:21:48.072Z,7.70
2022-10-19T04:24:17.258Z,4.30
2022-10-19T04:26:49.304Z,7.72
2022-10-19T04:29:18.949Z,9.27
2022-10-19T04:31:46.076Z,7.07
2022-10-19T04:34:12.705Z,8.18
2022-10-19T04:36:39.569Z,6.82
2022-10-19T04:39:07.230Z,8.82
2022-10-19T04:41:34.424Z,6.25
2022-10-19T04:44:03.973Z,8.77
2022-10-19T04:46:31.022Z,14.07
2022-10-19T04:48:58.358Z,6.47
2022-10-19T04:51:26.101Z,11.18
2022-10-19T04:53:55.602Z,7.30
2022-10-19T04:56:26.443Z,9.02
2022-10-19T04:58:56.398Z,7.30
2022-10-19T05:01:25.702Z,7.53
2022-10-19T05:04:00.729Z,7.13
2022-10-19T05:06:28.020Z,7.80
2022-10-19T05:08:54.935Z,8.20
2022-10-19T05:11:21.879Z,5.88
2022-10-19T05:13:48.963Z,7.95
2022-10-19T05:16:20.996Z,6.22
2022-10-19T05:18:52.265Z,7.55
2022-10-19T05:21:20.588Z,11.18
2022-10-19T05:23:47.581Z,7.32
2022-10-19T05:26:17.543Z,9.68
2022-10-19T05:28:49.044Z,6.32
2022-10-19T05:31:18.017Z,6.30
2022-10-19T05:33:45.145Z,5.82
2022-10-19T05:36:26.150Z,8.25
2022-10-19T05:38:55.250Z,8.35
2022-10-19T05:41:23.224Z,6.68
2022-10-19T05:43:58.189Z,7.00
2022-10-19T05:46:26.178Z,8.23
2022-10-19T05:48:52.958Z,10.65
2022-10-19T05:51:21.499Z,6.72
2022-10-19T05:53:49.179Z,11.10
2022-10-19T05:56:18.839Z,7.43
2022-10-19T05:58:46.187Z,7.05
2022-10-19T06:01:14.124Z,7.53
2022-10-19T06:03:41.501Z,10.43
2022-10-19T06:06:09.298Z,6.72
2022-10-19T06:08:36.622Z,7.50
2022-10-19T06:11:12.219Z,10.63
2022-10-19T06:13:40.835Z,10.80
2022-10-19T06:16:09.268Z,8.88
2022-10-19T06:18:36.498Z,12.52
2022-10-19T06:21:10.028Z,7.00
2022-10-19T06:23:37.401Z,8.45
2022-10-19T06:26:09.386Z,9.02
2022-10-19T06:28:37.429Z,8.77
2022-10-19T06:31:07.222Z,7.32
2022-10-19T06:33:36.568Z,5.68
2022-10-19T06:36:15.086Z,8.73
2022-10-19T06:38:42.352Z,7.97
2022-10-19T06:41:10.138Z,7.85
2022-10-19T06:43:36.878Z,7.30
2022-10-19T06:46:08.858Z,10.00
2022-10-19T06:48:35.710Z,10.15
2022-10-19T06:51:06.642Z,7.00
2022-10-19T06:53:34.380Z,10.32
2022-10-19T06:56:03.654Z,11.30
2022-10-19T06:58:31.072Z,7.88
2022-10-19T07:01:01.538Z,10.95
2022-10-19T07:03:29.963Z,10.27
2022-10-19T07:05:58.890Z,14.95
2022-10-19T07:08:27.361Z,7.78
2022-10-19T07:11:02.245Z,8.30
2022-10-19T07:13:30.215Z,10.55
2022-10-19T07:16:04.003Z,8.68
2022-10-19T07:18:30.808Z,11.95
2022-10-19T07:20:59.072Z,12.93
2022-10-19T07:23:27.045Z,8.35
2022-10-19T07:26:00.245Z,8.70
2022-10-19T07:28:28.185Z,8.50
2022-10-19T07:30:55.457Z,9.48
2022-10-19T07:33:22.244Z,8.48
2022-10-19T07:35:48.977Z,8.60
2022-10-19T07:38:15.691Z,6.30
2022-10-19T07:40:44.912Z,8.73
2022-10-19T07:43:14.047Z,9.07
2022-10-19T07:45:40.786Z,11.38
2022-10-19T07:48:07.509Z,8.43
2022-10-19T07:50:34.267Z,7.13
2022-10-19T07:53:03.360Z,8.27
2022-10-19T07:55:30.021Z,9.90
2022-10-19T07:58:01.401Z,7.65
2022-10-19T08:00:28.246Z,9.70
2022-10-19T08:03:19.222Z,14.40
2022-10-19T08:05:41.939Z,9.70
2022-10-19T08:08:08.553Z,11.07
2022-10-19T08:10:35.248Z,8.70
2022-10-19T08:13:01.895Z,11.85
2022-10-19T08:15:30.145Z,12.30
2022-10-19T08:17:56.808Z,7.35
2022-10-19T08:20:23.494Z,9.52
2022-10-19T08:22:52.049Z,8.95
2022-10-19T08:25:21.625Z,8.23
2022-10-19T08:27:48.285Z,13.10
2022-10-19T08:30:15.063Z,12.45
2022-10-19T08:32:41.809Z,12.88
2022-10-19T08:35:10.855Z,11.75
2022-10-19T08:37:45.065Z,9.65
2022-10-19T08:40:23.960Z,10.90
2022-10-19T08:43:10.328Z,10.85
2022-10-19T08:45:39.120Z,11.48
2022-10-19T08:48:42.835Z,10.98
2022-10-19T08:51:13.057Z,9.93
2022-10-19T08:53:45.679Z,9.70
2022-10-19T08:56:45.941Z,11.07
2022-10-19T08:59:14.344Z,14.77
2022-10-19T09:01:48.159Z,10.13
2022-10-19T09:04:24.498Z,10.80
2022-10-19T09:07:10.904Z,8.80
2022-10-19T09:09:43.943Z,14.57
2022-10-19T09:12:16.202Z,12.02
2022-10-19T09:15:05.899Z,11.13
2022-10-19T09:17:32.946Z,8.35
2022-10-19T09:20:25.142Z,8.18
2022-10-19T09:23:18.573Z,9.02
2022-10-19T09:25:47.054Z,10.00
2022-10-19T09:28:40.160Z,10.85
2022-10-19T09:31:14.189Z,7.90
2022-10-19T09:33:42.902Z,9.07
2022-10-19T09:36:18.306Z,9.50
2022-10-19T09:38:50.929Z,6.35
2022-10-19T09:41:20.908Z,8.73
2022-10-19T09:43:53.746Z,9.10
2022-10-19T09:46:52.163Z,9.45
2022-10-19T09:49:37.573Z,9.15
2022-10-19T09:52:04.364Z,7.70
2022-10-19T09:54:36.207Z,8.45
2022-10-19T09:57:05.053Z,10.45
2022-10-19T09:59:36.211Z,10.13
2022-10-19T10:02:17.036Z,8.07
2022-10-19T10:05:16.294Z,12.15
2022-10-19T10:07:43.096Z,7.75
2022-10-19T10:10:32.595Z,6.78
2022-10-19T10:13:00.543Z,9.93
2022-10-19T10:15:30.902Z,8.75
2022-10-19T10:20:30.353Z,5.72
2022-10-19T10:23:03.327Z,5.47
2022-10-19T10:25:36.212Z,7.15
2022-10-19T10:28:25.361Z,6.88
2022-10-19T10:31:01.481Z,5.10
2022-10-19T10:33:45.775Z,7.30
2022-10-19T10:36:13.079Z,9.35
2022-10-19T10:38:45.258Z,6.47
2022-10-19T10:41:14.286Z,3.42
2022-10-19T10:46:42.768Z,5.35
2022-10-19T10:49:21.398Z,5.68
2022-10-19T10:51:55.538Z,6.72
2022-10-19T10:54:27.579Z,10.15
2022-10-19T10:57:18.607Z,3.78
2022-10-19T11:00:13.959Z,6.93
2022-10-19T11:03:01.967Z,7.55
2022-10-19T11:05:51.492Z,3.53
2022-10-19T11:08:27.814Z,4.53
2022-10-19T11:11:10.841Z,8.18
2022-10-19T11:13:49.097Z,4.40
2022-10-19T11:16:23.785Z,6.20
2022-10-19T11:18:55.041Z,8.07
2022-10-19T11:21:27.097Z,6.63
2022-10-19T11:23:56.743Z,4.78
2022-10-19T11:27:05.012Z,4.65
2022-10-19T11:30:01.520Z,5.57
2022-10-19T11:32:46.083Z,7.80
2022-10-19T11:35:34.912Z,6.60
2022-10-19T11:38:26.277Z,5.13
2022-10-19T11:41:35.724Z,5.30
2022-10-19T11:44:28.810Z,6.65
2022-10-19T11:47:29.962Z,3.58
2022-10-19T11:50:27.064Z,5.38
2022-10-19T11:53:17.899Z,8.38
2022-10-19T11:55:50.451Z,7.72
2022-10-19T11:58:35.268Z,7.07
2022-10-19T12:01:14.230Z,7.32
2022-10-19T12:03:49.442Z,5.75
2022-10-19T12:06:34.331Z,6.05
2022-10-19T12:09:28.434Z,6.82
2022-10-19T12:12:26.638Z,5.55
2022-10-19T12:15:17.738Z,4.45
2022-10-19T12:17:49.043Z,10.38
2022-10-19T12:20:38.259Z,6.75
2022-10-19T12:23:29.039Z,6.93
2022-10-19T12:25:58.240Z,6.47
2022-10-19T12:28:31.993Z,6.82
2022-10-19T12:31:01.420Z,9.80
2022-10-19T12:33:56.018Z,4.87
2022-10-19T12:36:30.218Z,5.80
2022-10-19T12:39:20.372Z,8.95
2022-10-19T12:41:58.814Z,7.47
2022-10-19T12:45:02.621Z,5.10
2022-10-19T12:47:29.416Z,8.10
2022-10-19T12:49:57.543Z,4.20
2022-10-19T12:52:43.028Z,4.40
2022-10-19T12:55:15.731Z,6.78
2022-10-19T12:58:19.114Z,7.53
2022-10-19T13:01:01.670Z,5.20
2022-10-19T13:03:36.914Z,6.95
2022-10-19T13:06:15.159Z,7.47
2022-10-19T13:09:02.862Z,5.93
2022-10-19T13:11:30.293Z,11.63
2022-10-19T13:14:05.114Z,9.05
2022-10-19T13:16:36.497Z,5.53
2022-10-19T13:19:12.244Z,10.05
2022-10-19T13:21:48.087Z,6.35
2022-10-19T13:24:20.591Z,7.55
2022-10-19T13:26:47.240Z,6.72
2022-10-19T13:29:28.922Z,5.35
2022-10-19T13:31:55.693Z,5.03
2022-10-19T13:34:25.070Z,8.65
2022-10-19T13:37:03.705Z,5.93
2022-10-19T13:39:30.489Z,4.22
2022-10-19T13:41:58.412Z,3.92
2022-10-19T13:44:28.139Z,6.95
2022-10-19T13:47:12.526Z,7.00
2022-10-19T13:49:57.791Z,6.47
2022-10-19T13:52:43.211Z,8.90
2022-10-19T13:55:37.998Z,6.22
2022-10-19T13:58:31.012Z,9.23
2022-10-19T14:01:36.121Z,7.47
2022-10-19T14:04:18.519Z,5.97
2022-10-19T14:06:53.128Z,6.63
2022-10-19T14:09:46.421Z,5.55
2022-10-19T14:12:40.706Z,7.53
2022-10-19T14:15:13.718Z,6.63
2022-10-19T14:17:43.212Z,9.32
2022-10-19T14:20:33.363Z,5.63
2022-10-19T14:23:23.233Z,6.70
2022-10-19T14:25:57.504Z,6.40
2022-10-19T14:28:24.889Z,7.90
2022-10-19T14:31:05.852Z,6.63
2022-10-19T14:33:39.590Z,6.88
2022-10-19T14:36:17.639Z,5.43
2022-10-19T14:38:44.767Z,7.28
2022-10-19T14:41:19.709Z,4.15
2022-10-19T14:43:46.355Z,4.05
2022-10-19T14:46:15.694Z,6.30
2022-10-19T14:48:48.467Z,4.60
2022-10-19T14:51:28.217Z,4.55
2022-10-19T14:54:00.461Z,6.82
2022-10-19T14:56:34.813Z,5.53
2022-10-19T14:59:29.941Z,6.40
2022-10-19T15:02:01.062Z,6.20
2022-10-19T15:04:36.970Z,5.82
2022-10-19T15:07:13.634Z,8.00
2022-10-19T15:09:48.138Z,4.03
2022-10-19T15:12:19.300Z,4.68
2022-10-19T15:14:47.853Z,6.00
2022-10-19T15:17:36.006Z,5.93
2022-10-19T15:20:02.832Z,5.47
2022-10-19T15:22:31.230Z,4.95
2022-10-19T15:24:57.894Z,11.40
2022-10-19T15:27:36.735Z,8.30
2022-10-19T15:30:25.517Z,4.05
2022-10-19T15:33:15.272Z,5.65
2022-10-19T15:35:44.501Z,5.25
2022-10-19T15:38:14.573Z,4.68
2022-10-19T15:40:43.794Z,5.00
2022-10-19T15:43:35.271Z,5.38
2022-10-19T15:46:08.642Z,5.68
2022-10-19T15:48:48.091Z,4.32
2022-10-19T15:51:25.515Z,6.55
2022-10-19T15:53:53.044Z,4.50
2022-10-19T15:56:20.595Z,8.18
2022-10-19T15:58:52.312Z,4.80
2022-10-19T16:01:31.423Z,3.97
2022-10-19T16:03:58.572Z,6.20
2022-10-19T16:06:31.199Z,9.30
2022-10-19T16:08:59.502Z,6.53
2022-10-19T16:11:27.315Z,5.85
2022-10-19T16:13:53.981Z,6.30
2022-10-19T16:16:24.740Z,5.25
2022-10-19T16:18:51.640Z,5.22
2022-10-19T16:21:20.416Z,7.20
2022-10-19T16:23:47.329Z,6.78
2022-10-19T16:26:15.623Z,7.80
2022-10-19T16:28:42.676Z,11.35
2022-10-19T16:31:10.521Z,18.35
2022-10-19T16:33:37.223Z,15.88
2022-10-19T16:36:05.809Z,7.70
2022-10-19T16:38:32.888Z,8.05
2022-10-19T16:41:01.421Z,5.13
2022-10-19T16:43:28.691Z,5.43
2022-10-19T16:45:55.550Z,6.38
2022-10-19T16:48:24.138Z,8.20
2022-10-19T16:51:19.275Z,9.27
2022-10-19T16:53:46.028Z,11.40
2022-10-19T16:56:13.455Z,17.95
2022-10-19T16:58:41.086Z,19.83
2022-10-19T17:01:12.435Z,10.75
2022-10-19T17:03:39.105Z,11.23
2022-10-19T17:06:07.218Z,10.73
2022-10-19T17:09:14.369Z,9.43
2022-10-19T17:11:24.618Z,14.45
2022-10-19T17:13:52.975Z,15.30
2022-10-19T17:16:20.962Z,27.55
2022-10-19T17:18:48.153Z,26.95
2022-10-19T17:21:18.314Z,50.58
2022-10-19T17:23:45.958Z,31.08
2022-10-19T17:26:13.529Z,35.30
2022-10-19T17:28:40.473Z,27.83
2022-10-19T17:31:10.286Z,21.02
2022-10-19T17:33:37.690Z,13.07
2022-10-19T17:36:16.878Z,23.83
2022-10-19T17:38:43.538Z,12.57
2022-10-19T17:41:12.961Z,12.90
2022-10-19T17:43:42.146Z,9.68
2022-10-19T17:46:12.066Z,10.98
2022-10-19T17:48:40.062Z,13.45
2022-10-19T17:51:19.487Z,9.35
2022-10-19T17:53:47.821Z,9.50
2022-10-19T17:56:16.815Z,21.58
2022-10-19T17:58:43.563Z,12.73
2022-10-19T18:01:11.616Z,11.57
2022-10-19T18:03:39.581Z,9.90
2022-10-19T18:06:10.719Z,9.40
2022-10-19T18:08:44.074Z,12.20
2022-10-19T18:11:15.393Z,13.15
2022-10-19T18:13:42.360Z,10.43
2022-10-19T18:16:12.445Z,10.60
2022-10-19T18:18:41.135Z,7.07
2022-10-19T18:21:11.373Z,13.90
2022-10-19T18:23:38.446Z,12.73
2022-10-19T18:26:07.812Z,6.20
2022-10-19T18:28:34.897Z,8.93
2022-10-19T18:31:10.351Z,10.73
2022-10-19T18:33:37.610Z,9.05
2022-10-19T18:36:06.127Z,8.32
2022-10-19T18:38:32.953Z,9.00
2022-10-19T18:41:04.110Z,9.68
2022-10-19T18:43:31.247Z,9.20
2022-10-19T18:45:59.440Z,9.63
2022-10-19T18:48:28.503Z,10.43
2022-10-19T18:50:56.006Z,9.70
2022-10-19T18:53:23.192Z,8.65
2022-10-19T18:56:06.055Z,9.55
2022-10-19T18:58:33.697Z,9.10
2022-10-19T19:01:09.189Z,10.68
2022-10-19T19:03:37.691Z,7.68
2022-10-19T19:06:10.219Z,8.40
2022-10-19T19:08:37.056Z,11.18
2022-10-19T19:11:16.400Z,9.50
2022-10-19T19:13:48.271Z,9.65
2022-10-19T19:16:15.013Z,11.57
2022-10-19T19:18:41.658Z,10.88
2022-10-19T19:21:17.825Z,9.63
2022-10-19T19:23:45.547Z,6.80
2022-10-19T19:26:13.079Z,7.13
2022-10-19T19:28:41.885Z,10.93
2022-10-19T19:31:11.432Z,7.70
2022-10-19T19:33:39.003Z,10.27
2022-10-19T19:36:07.618Z,8.05
2022-10-19T19:38:35.691Z,8.50
2022-10-19T19:41:07.516Z,6.85
2022-10-19T19:43:36.978Z,6.65
2022-10-19T19:46:08.856Z,6.80
2022-10-19T19:48:36.731Z,7.90
2022-10-19T19:51:03.545Z,7.85
2022-10-19T19:53:30.233Z,10.80
2022-10-19T19:55:56.963Z,9.95
2022-10-19T19:58:23.607Z,10.00
2022-10-19T20:00:50.303Z,8.20
2022-10-19T20:03:16.930Z,9.27
2022-10-19T20:05:43.593Z,9.18
2022-10-19T20:08:11.238Z,8.32
2022-10-19T20:10:39.816Z,8.18
2022-10-19T20:13:06.551Z,7.18
2022-10-19T20:15:33.628Z,6.63
2022-10-19T20:18:00.261Z,9.82
2022-10-19T20:20:26.878Z,7.97
2022-10-19T20:22:53.584Z,8.15
2022-10-19T20:25:20.209Z,8.48
2022-10-19T20:27:46.878Z,8.85
2022-10-19T20:30:13.492Z,7.53
2022-10-19T20:32:40.143Z,10.23
2022-10-19T20:35:07.462Z,8.90
2022-10-19T20:37:34.218Z,7.43
2022-10-19T20:40:08.122Z,12.23
2022-10-19T20:42:35.707Z,8.23
2022-10-19T20:45:02.660Z,8.43
2022-10-19T20:47:29.844Z,10.38
2022-10-19T20:49:56.549Z,7.90
2022-10-19T20:52:23.236Z,7.78
2022-10-19T20:54:49.871Z,9.60
2022-10-19T20:57:16.474Z,6.68
2022-10-19T20:59:44.069Z,10.88
2022-10-19T21:02:11.309Z,9.18
2022-10-19T21:04:38.010Z,10.60
2022-10-19T21:07:05.020Z,12.52
2022-10-19T21:09:31.966Z,8.05
2022-10-19T21:11:58.605Z,9.77
2022-10-19T21:14:28.589Z,7.00
2022-10-19T21:16:59.870Z,9.45
2022-10-19T21:19:28.426Z,9.02
2022-10-19T21:21:58.022Z,6.47
2022-10-19T21:24:27.757Z,6.90
2022-10-19T21:26:54.768Z,8.13
2022-10-19T21:29:21.432Z,6.55
2022-10-19T21:31:51.799Z,7.55
2022-10-19T21:36:46.733Z,10.70
2022-10-19T21:39:13.427Z,7.63
2022-10-19T21:41:40.083Z,7.43
2022-10-19T21:44:07.008Z,9.93
2022-10-19T21:46:33.703Z,8.75
2022-10-19T21:49:00.377Z,9.73
2022-10-19T21:51:40.362Z,8.15
2022-10-19T21:54:17.302Z,7.35
2022-10-19T21:56:44.861Z,8.27
2022-10-19T21:59:12.114Z,7.10
2022-10-19T22:01:41.300Z,11.52
2022-10-19T22:04:13.905Z,8.13
2022-10-19T22:06:40.991Z,9.25
2022-10-19T22:09:09.717Z,8.18
2022-10-19T22:11:36.430Z,10.25
2022-10-19T22:14:04.289Z,7.70
2022-10-19T22:16:32.199Z,6.47
2022-10-19T22:18:58.862Z,8.98
2022-10-19T22:21:28.302Z,7.45
2022-10-19T22:23:58.557Z,10.23
2022-10-19T22:26:28.304Z,7.75
2022-10-19T22:28:57.005Z,7.57
2022-10-19T22:31:24.998Z,9.40
2022-10-19T22:33:51.643Z,7.05
2022-10-19T22:36:18.432Z,9.45
2022-10-19T22:38:45.382Z,6.15
2022-10-19T22:42:08.679Z,7.53
2022-10-19T22:44:35.293Z,7.10
2022-10-19T22:47:01.973Z,7.97
2022-10-19T22:49:28.680Z,11.02
2022-10-19T22:51:55.370Z,11.20
2022-10-19T22:54:22.022Z,9.40
2022-10-19T22:56:49.110Z,10.43
2022-10-19T22:59:15.771Z,9.68
2022-10-19T23:01:42.471Z,8.93
2022-10-19T23:04:09.207Z,11.20
2022-10-19T23:06:35.870Z,8.73
2022-10-19T23:09:02.576Z,8.43
2022-10-19T23:11:29.280Z,9.25
2022-10-19T23:13:55.905Z,9.52
2022-10-19T23:16:22.589Z,9.52
2022-10-19T23:18:49.376Z,9.65
2022-10-19T23:21:17.014Z,8.98
2022-10-19T23:23:43.846Z,8.60
2022-10-19T23:26:11.937Z,9.18
2022-10-19T23:28:40.271Z,9.15
2022-10-19T23:31:14.030Z,8.55
2022-10-19T23:33:41.042Z,7.15
2022-10-19T23:36:16.878Z,12.18
2022-10-19T23:38:44.865Z,9.05
2022-10-19T23:41:12.717Z,8.43
2022-10-19T23:43:40.086Z,7.18
2022-10-19T23:46:07.631Z,11.00
2022-10-19T23:48:35.278Z,7.75
2022-10-19T23:51:08.145Z,8.48
2022-10-19T23:53:40.770Z,6.85
2022-10-19T23:56:11.889Z,11.20
